Terminal Aerodrome Forecast
Issued by NWS

Home | Current Version | Previous Version | Graphics & Text | Print | Product List | Glossary On
Versions: 1 2 3 4 5 6 7 8 9 10 11 12 13
000
FTUS43 KIWX 212321
TAFSBN
TAF
KSBN 212321Z 2200/2224 36011G20KT P6SM FEW250
     FM220200 01009KT P6SM FEW250
     FM221600 03007KT P6SM FEW250=

USA.gov is the U.S. government's official web portal to all federal, state and local government web resources and services.